Indian Township, Maine
Current Conditions -  °F | °C
As of 3:53 AM on Saturday 29 Nov 2014 (Local Time) from KMLT Reporting Station
Clear Clear  
Wind Chill:   Ceiling: Unl
Heat Index: 17°   Visibility: 10mi
Dew Point:   Wind: 9mph
Humidity: 71%   Direction: 280°W
Pressure: 30.17"   Gusts: NA
Location:  45.1886°N, 67.7075°W
Report Text: KMLT 290853Z AUTO 28008KT 10SM CLR M08/M13 A3017 RMK AO2 SLP228 T10831128 51021
Loading
Personal Weather Stations






























Interactive Weather Map New forecast layout! Learn more

10-Day Weather Forecast

Advertisements
Track Severe Weather on mobile